Time;durP1;ratioP1;P1;durP2;ratioP2;P2;SDS_P1;SDS_P2;PMS_P1;PMS_P2;Temp;Humidity;BMP_temperature;BMP_pressure;BME280_temperature;BME280_humidity;BME280_pressure;Samples;Min_cycle;Max_cycle;Signal;HPM_P1;HPM_P2
2023/02/26 00:01:25;;;;;;;3.92;2.25;;;;;;;;;;5058882;28;20036;-63
2023/02/26 00:03:51;;;;;;;3.63;2.25;;;;;;;;;;5064359;28;20045;-65
2023/02/26 00:06:16;;;;;;;5.10;2.20;;;;;;;;;;5053905;28;20033;-64
2023/02/26 00:08:41;;;;;;;4.90;2.60;;;;;;;;;;5058760;28;20035;-64
2023/02/26 00:11:07;;;;;;;6.68;2.83;;;;;;;;;;5064240;28;20663;-62
2023/02/26 00:13:32;;;;;;;4.03;2.60;;;;;;;;;;5063774;28;20456;-64
2023/02/26 00:15:58;;;;;;;4.35;2.38;;;;;;;;;;5065078;28;20096;-63
2023/02/26 00:18:24;;;;;;;3.80;2.28;;;;;;;;;;5030565;28;20077;-64
2023/02/26 00:20:49;;;;;;;5.45;2.40;;;;;;;;;;5044309;28;20517;-61
2023/02/26 00:23:14;;;;;;;4.47;2.40;;;;;;;;;;5062144;28;20052;-63
2023/02/26 00:25:40;;;;;;;5.13;2.55;;;;;;;;;;5033777;28;20080;-64
2023/02/26 00:28:06;;;;;;;6.03;2.60;;;;;;;;;;5046294;28;20064;-64
2023/02/26 00:30:31;;;;;;;5.40;2.60;;;;;;;;;;5064526;28;20127;-63
2023/02/26 00:32:56;;;;;;;5.10;2.65;;;;;;;;;;5062210;28;20111;-62
2023/02/26 00:35:22;;;;;;;4.60;2.35;;;;;;;;;;5036819;28;20041;-63
2023/02/26 00:38:00;;;;;;;6.07;2.88;;;;;;;;;;5062783;28;20036;-61
2023/02/26 00:40:28;;;;;;;3.75;2.47;;;;;;;;;;5063461;28;20523;-62
2023/02/26 00:42:54;;;;;;;4.05;2.45;;;;;;;;;;5057069;28;20567;-63
2023/02/26 00:45:19;;;;;;;4.13;2.53;;;;;;;;;;5058621;28;20036;-61
2023/02/26 00:48:02;;;;;;;3.35;2.15;;;;;;;;;;5064475;28;20016;-62
2023/02/26 00:50:28;;;;;;;3.17;2.38;;;;;;;;;;5060644;28;20044;-65
2023/02/26 00:53:07;;;;;;;4.95;2.58;;;;;;;;;;5054510;28;20110;-65
2023/02/26 00:55:33;;;;;;;3.63;2.50;;;;;;;;;;5044190;28;20032;-64
2023/02/26 00:57:58;;;;;;;4.10;2.47;;;;;;;;;;5064144;28;20851;-61
2023/02/26 01:00:23;;;;;;;5.27;2.63;;;;;;;;;;5064089;28;20570;-63
2023/02/26 01:02:49;;;;;;;4.25;2.50;;;;;;;;;;5063235;28;20310;-64
2023/02/26 01:05:15;;;;;;;3.95;2.42;;;;;;;;;;5049816;28;20043;-63
2023/02/26 01:07:52;;;;;;;6.03;2.50;;;;;;;;;;5057452;28;20127;-63
2023/02/26 01:10:17;;;;;;;5.38;2.53;;;;;;;;;;5044871;28;20515;-62
2023/02/26 01:12:43;;;;;;;3.95;2.80;;;;;;;;;;5063398;28;20117;-65
2023/02/26 01:15:08;;;;;;;3.70;2.03;;;;;;;;;;5061812;28;20444;-65
2023/02/26 01:17:38;;;;;;;4.95;2.22;;;;;;;;;;5054156;28;20021;-65
2023/02/26 01:20:06;;;;;;;3.30;2.10;;;;;;;;;;5055566;28;20037;-62
2023/02/26 01:22:35;;;;;;;4.05;2.30;;;;;;;;;;5060611;28;20129;-61
2023/02/26 01:25:04;;;;;;;5.07;2.10;;;;;;;;;;5044780;28;20041;-62
2023/02/26 01:27:29;;;;;;;3.83;2.50;;;;;;;;;;5057382;28;20043;-64
2023/02/26 01:29:55;;;;;;;3.75;2.50;;;;;;;;;;5060970;28;20041;-64
2023/02/26 01:32:20;;;;;;;4.18;2.55;;;;;;;;;;5063178;28;20055;-62
2023/02/26 01:34:48;;;;;;;4.93;3.00;;;;;;;;;;5048767;28;20610;-63
2023/02/26 01:37:32;;;;;;;3.95;2.42;;;;;;;;;;5043069;28;20033;-63
2023/02/26 01:40:02;;;;;;;4.25;2.83;;;;;;;;;;5059017;28;20024;-63
2023/02/26 01:42:29;;;;;;;4.75;2.67;;;;;;;;;;5042023;28;20152;-63
2023/02/26 01:44:57;;;;;;;4.68;2.75;;;;;;;;;;5044669;28;20111;-62
2023/02/26 01:47:46;;;;;;;3.75;2.38;;;;;;;;;;5053992;28;20060;-62
2023/02/26 01:50:12;;;;;;;5.38;2.42;;;;;;;;;;5054673;28;20113;-60
2023/02/26 01:52:57;;;;;;;3.85;2.60;;;;;;;;;;5053880;28;20123;-62
2023/02/26 01:55:23;;;;;;;4.15;2.38;;;;;;;;;;5051986;28;20049;-64
2023/02/26 01:57:48;;;;;;;3.47;2.05;;;;;;;;;;5038624;28;20050;-63
2023/02/26 02:00:14;;;;;;;3.15;2.40;;;;;;;;;;5063233;28;20047;-63
2023/02/26 02:02:40;;;;;;;4.20;2.60;;;;;;;;;;5039565;28;20060;-63
2023/02/26 02:05:10;;;;;;;4.17;2.60;;;;;;;;;;5063289;28;20432;-63
2023/02/26 02:07:35;;;;;;;3.97;2.10;;;;;;;;;;5061207;28;20298;-63
2023/02/26 02:10:01;;;;;;;4.63;2.40;;;;;;;;;;5035753;28;20043;-61
2023/02/26 02:12:45;;;;;;;5.00;2.43;;;;;;;;;;5040883;28;20812;-63
2023/02/26 02:15:11;;;;;;;4.70;2.40;;;;;;;;;;5056703;28;20032;-63
2023/02/26 02:17:54;;;;;;;3.22;2.05;;;;;;;;;;5057256;28;20036;-62
2023/02/26 02:20:26;;;;;;;4.15;2.05;;;;;;;;;;5061826;28;20047;-64
2023/02/26 02:22:58;;;;;;;3.30;2.00;;;;;;;;;;5056925;28;20061;-62
2023/02/26 02:25:26;;;;;;;3.85;2.33;;;;;;;;;;5059497;28;20040;-62
2023/02/26 02:27:58;;;;;;;4.63;2.25;;;;;;;;;;5062122;28;20135;-61
2023/02/26 02:30:46;;;;;;;3.17;2.17;;;;;;;;;;5061098;28;20039;-63
2023/02/26 02:33:12;;;;;;;3.60;2.13;;;;;;;;;;5022760;28;20047;-62
2023/02/26 02:35:40;;;;;;;3.33;2.40;;;;;;;;;;5040395;28;20024;-62
2023/02/26 02:38:14;;;;;;;3.60;2.10;;;;;;;;;;5063798;28;20409;-64
2023/02/26 02:40:40;;;;;;;3.65;2.30;;;;;;;;;;5065931;28;20032;-63
2023/02/26 02:43:10;;;;;;;2.92;1.90;;;;;;;;;;5060823;28;20079;-64
2023/02/26 02:45:49;;;;;;;5.03;2.97;;;;;;;;;;5033654;28;20044;-62
2023/02/26 02:48:17;;;;;;;3.85;2.60;;;;;;;;;;5043670;28;20325;-62
2023/02/26 02:50:43;;;;;;;3.58;2.10;;;;;;;;;;5058133;28;20080;-63
2023/02/26 02:53:11;;;;;;;5.38;2.65;;;;;;;;;;5038672;28;20064;-63
2023/02/26 02:55:38;;;;;;;3.22;2.10;;;;;;;;;;5059856;28;20111;-61
2023/02/26 02:58:05;;;;;;;4.30;2.30;;;;;;;;;;5065684;28;20051;-62
2023/02/26 03:00:31;;;;;;;5.80;2.38;;;;;;;;;;5062720;28;20083;-62
2023/02/26 03:03:03;;;;;;;4.95;2.50;;;;;;;;;;5034447;28;20063;-63
2023/02/26 03:05:28;;;;;;;4.72;2.05;;;;;;;;;;5064083;28;20060;-64
2023/02/26 03:07:58;;;;;;;3.60;2.47;;;;;;;;;;5065828;28;20032;-64
2023/02/26 03:10:23;;;;;;;3.13;2.13;;;;;;;;;;5066265;28;20334;-63
2023/02/26 03:12:48;;;;;;;3.97;2.28;;;;;;;;;;5058994;28;20303;-61
2023/02/26 03:15:13;;;;;;;5.03;2.30;;;;;;;;;;5045563;28;20530;-65
2023/02/26 03:17:42;;;;;;;3.97;2.30;;;;;;;;;;5045238;28;20044;-63
2023/02/26 03:20:22;;;;;;;3.35;2.20;;;;;;;;;;5046878;28;20465;-61
2023/02/26 03:22:47;;;;;;;3.25;2.08;;;;;;;;;;5039779;28;20097;-61
2023/02/26 03:25:15;;;;;;;4.13;2.27;;;;;;;;;;5063689;28;20515;-61
2023/02/26 03:27:40;;;;;;;3.05;1.92;;;;;;;;;;5054524;28;20095;-63
2023/02/26 03:30:06;;;;;;;3.83;2.03;;;;;;;;;;5064455;28;20045;-63
2023/02/26 03:32:33;;;;;;;4.00;2.42;;;;;;;;;;5063807;28;20036;-64
2023/02/26 03:35:00;;;;;;;3.70;2.30;;;;;;;;;;5064584;28;20071;-63
2023/02/26 03:37:27;;;;;;;3.90;2.35;;;;;;;;;;5043798;28;20029;-64
2023/02/26 03:39:54;;;;;;;3.17;2.05;;;;;;;;;;5038230;28;20090;-64
2023/02/26 03:42:38;;;;;;;4.47;2.40;;;;;;;;;;5046496;28;20359;-64
2023/02/26 03:45:08;;;;;;;3.88;2.40;;;;;;;;;;5064273;28;20044;-61
2023/02/26 03:47:33;;;;;;;2.92;2.22;;;;;;;;;;5063886;28;20509;-63
2023/02/26 03:49:59;;;;;;;3.67;2.22;;;;;;;;;;5062951;28;20060;-63
2023/02/26 03:52:25;;;;;;;4.63;2.23;;;;;;;;;;5056828;28;20040;-63
2023/02/26 03:55:00;;;;;;;3.85;1.98;;;;;;;;;;5041960;28;20335;-63
2023/02/26 03:57:25;;;;;;;4.53;2.20;;;;;;;;;;5056885;28;20071;-62
2023/02/26 03:59:51;;;;;;;3.55;2.00;;;;;;;;;;5051849;28;20049;-61
2023/02/26 04:02:17;;;;;;;4.53;2.33;;;;;;;;;;5025139;28;20516;-63
2023/02/26 04:04:43;;;;;;;4.03;2.10;;;;;;;;;;5038306;28;20024;-63
2023/02/26 04:07:09;;;;;;;3.38;2.17;;;;;;;;;;5064859;28;20034;-63
2023/02/26 04:09:34;;;;;;;3.10;1.90;;;;;;;;;;5063649;28;20028;-60
2023/02/26 04:11:59;;;;;;;3.30;1.97;;;;;;;;;;5062978;28;20060;-62
2023/02/26 04:14:24;;;;;;;3.20;1.90;;;;;;;;;;5052113;28;20260;-63
2023/02/26 04:16:50;;;;;;;2.92;1.95;;;;;;;;;;5050757;28;20324;-63
2023/02/26 04:19:15;;;;;;;3.00;2.10;;;;;;;;;;5046573;28;20027;-63
2023/02/26 04:21:40;;;;;;;4.00;2.00;;;;;;;;;;5044828;28;20008;-62
2023/02/26 04:24:05;;;;;;;4.00;2.00;;;;;;;;;;5055708;28;20031;-62
2023/02/26 04:26:31;;;;;;;3.27;2.10;;;;;;;;;;5063797;28;20105;-64
2023/02/26 04:28:56;;;;;;;3.13;1.97;;;;;;;;;;5064758;28;20320;-66
2023/02/26 04:31:21;;;;;;;3.80;2.23;;;;;;;;;;5062476;28;20274;-65
2023/02/26 04:33:46;;;;;;;3.63;1.87;;;;;;;;;;5040316;28;20131;-63
2023/02/26 04:36:11;;;;;;;2.77;1.80;;;;;;;;;;5026245;28;20055;-62
2023/02/26 04:38:37;;;;;;;3.03;1.83;;;;;;;;;;5060662;28;20282;-64
2023/02/26 04:41:02;;;;;;;3.57;2.00;;;;;;;;;;5063224;28;20254;-64
2023/02/26 04:43:27;;;;;;;2.65;1.60;;;;;;;;;;5061406;28;20302;-64
2023/02/26 04:45:52;;;;;;;3.28;2.22;;;;;;;;;;5063635;28;20103;-65
2023/02/26 04:48:18;;;;;;;2.80;1.73;;;;;;;;;;5062425;28;20057;-64
2023/02/26 04:50:43;;;;;;;3.33;2.10;;;;;;;;;;5058142;28;20286;-63
2023/02/26 04:53:08;;;;;;;2.75;1.75;;;;;;;;;;5063503;28;20258;-63
2023/02/26 04:55:34;;;;;;;3.17;1.77;;;;;;;;;;5044158;28;20013;-64
2023/02/26 04:57:59;;;;;;;3.85;2.33;;;;;;;;;;5063308;28;20270;-61
2023/02/26 05:00:24;;;;;;;3.50;1.90;;;;;;;;;;5059955;28;20032;-61
2023/02/26 05:02:50;;;;;;;3.60;2.00;;;;;;;;;;5041821;28;20294;-64
2023/02/26 05:05:15;;;;;;;3.00;1.80;;;;;;;;;;5042495;28;22099;-64
2023/02/26 05:07:40;;;;;;;2.90;1.60;;;;;;;;;;5057983;28;20806;-63
2023/02/26 05:10:06;;;;;;;2.63;1.90;;;;;;;;;;5062561;28;20028;-64
2023/02/26 05:12:31;;;;;;;3.20;1.92;;;;;;;;;;5044919;28;20319;-63
2023/02/26 05:14:56;;;;;;;2.17;1.75;;;;;;;;;;5045763;28;20071;-63
2023/02/26 05:17:22;;;;;;;3.37;1.70;;;;;;;;;;5055876;28;20021;-63
2023/02/26 05:19:47;;;;;;;3.80;2.08;;;;;;;;;;5061662;28;20766;-64
2023/02/26 05:22:12;;;;;;;3.45;1.90;;;;;;;;;;5058140;28;20511;-62
2023/02/26 05:24:38;;;;;;;3.47;1.70;;;;;;;;;;5046364;28;20024;-62
2023/02/26 05:27:03;;;;;;;3.28;1.60;;;;;;;;;;5045614;28;20050;-64
2023/02/26 05:29:28;;;;;;;2.73;1.67;;;;;;;;;;5043560;28;20047;-64
2023/02/26 05:31:53;;;;;;;2.30;1.50;;;;;;;;;;5057773;28;20289;-62
2023/02/26 05:34:19;;;;;;;4.37;1.87;;;;;;;;;;5058422;28;20408;-60
2023/02/26 05:36:44;;;;;;;4.07;2.10;;;;;;;;;;5057253;28;20254;-62
2023/02/26 05:39:09;;;;;;;4.47;2.10;;;;;;;;;;5059035;28;20424;-61
2023/02/26 05:41:34;;;;;;;2.90;1.60;;;;;;;;;;5060277;28;20507;-65
2023/02/26 05:44:01;;;;;;;2.83;1.43;;;;;;;;;;5061851;28;20489;-62
2023/02/26 05:46:26;;;;;;;3.42;1.60;;;;;;;;;;5061969;28;20259;-61
2023/02/26 05:48:51;;;;;;;2.58;1.73;;;;;;;;;;5060892;28;20850;-60
2023/02/26 05:51:17;;;;;;;4.03;2.17;;;;;;;;;;5041089;28;20075;-61
2023/02/26 05:53:42;;;;;;;4.13;1.60;;;;;;;;;;5057594;28;20409;-63
2023/02/26 05:56:07;;;;;;;3.72;1.83;;;;;;;;;;5060500;28;20297;-65
2023/02/26 05:58:32;;;;;;;3.63;1.92;;;;;;;;;;5062558;28;20234;-66
2023/02/26 06:00:58;;;;;;;3.88;1.88;;;;;;;;;;5061457;28;20404;-63
2023/02/26 06:03:23;;;;;;;4.35;1.95;;;;;;;;;;5043649;28;20040;-61
2023/02/26 06:05:48;;;;;;;3.33;1.70;;;;;;;;;;5060879;28;20016;-61
2023/02/26 06:08:15;;;;;;;3.13;1.90;;;;;;;;;;5063480;28;20024;-65
2023/02/26 06:10:40;;;;;;;3.83;1.90;;;;;;;;;;5044809;28;20389;-66
2023/02/26 06:13:05;;;;;;;4.33;1.70;;;;;;;;;;5054564;28;20120;-66
2023/02/26 06:15:31;;;;;;;4.40;1.73;;;;;;;;;;5054486;28;20286;-64
2023/02/26 06:17:56;;;;;;;2.97;2.03;;;;;;;;;;5053248;28;20263;-66
2023/02/26 06:20:21;;;;;;;2.93;1.60;;;;;;;;;;5058578;28;20412;-67
2023/02/26 06:22:46;;;;;;;4.10;2.60;;;;;;;;;;5060837;28;20155;-69
2023/02/26 06:25:12;;;;;;;4.33;1.87;;;;;;;;;;5046958;28;20472;-72
2023/02/26 06:27:37;;;;;;;3.17;1.58;;;;;;;;;;5065546;28;20286;-69
2023/02/26 06:30:03;;;;;;;2.80;1.70;;;;;;;;;;5056924;28;20417;-69
2023/02/26 06:32:28;;;;;;;3.80;1.80;;;;;;;;;;5058219;28;20297;-67
2023/02/26 06:34:53;;;;;;;3.60;1.83;;;;;;;;;;5062450;28;20041;-68
2023/02/26 06:37:18;;;;;;;3.50;1.83;;;;;;;;;;5060295;28;20905;-66
2023/02/26 06:39:44;;;;;;;3.50;1.70;;;;;;;;;;5068614;28;20328;-68
2023/02/26 06:42:09;;;;;;;3.35;1.75;;;;;;;;;;5023257;28;20295;-69
2023/02/26 06:44:34;;;;;;;4.03;1.65;;;;;;;;;;5048850;28;20717;-70
2023/02/26 06:47:00;;;;;;;4.87;1.80;;;;;;;;;;5051176;28;20028;-67
2023/02/26 06:49:25;;;;;;;3.33;1.73;;;;;;;;;;5061978;28;20291;-73
2023/02/26 06:51:50;;;;;;;2.53;1.50;;;;;;;;;;5066589;28;20048;-68
2023/02/26 06:54:16;;;;;;;3.47;1.70;;;;;;;;;;5033656;28;20035;-66
2023/02/26 06:56:41;;;;;;;3.88;1.80;;;;;;;;;;5038709;28;20044;-69
2023/02/26 06:59:06;;;;;;;3.27;1.63;;;;;;;;;;5032392;28;20037;-73
2023/02/26 07:01:32;;;;;;;5.93;1.60;;;;;;;;;;5067662;28;20033;-62
2023/02/26 07:03:57;;;;;;;3.38;1.92;;;;;;;;;;5062356;28;20037;-72
2023/02/26 07:06:23;;;;;;;3.42;1.60;;;;;;;;;;5033749;28;20051;-74
2023/02/26 07:08:48;;;;;;;3.80;1.50;;;;;;;;;;5049112;28;20064;-73
2023/02/26 07:11:13;;;;;;;5.00;2.03;;;;;;;;;;5031559;28;20275;-72
2023/02/26 07:13:38;;;;;;;3.55;1.70;;;;;;;;;;5031230;28;21017;-70
2023/02/26 07:16:06;;;;;;;2.70;1.67;;;;;;;;;;5029714;28;20045;-71
2023/02/26 07:18:31;;;;;;;3.45;1.63;;;;;;;;;;5030648;28;20279;-70
2023/02/26 07:20:57;;;;;;;4.32;1.60;;;;;;;;;;5062714;28;20048;-68
2023/02/26 07:23:22;;;;;;;2.93;1.67;;;;;;;;;;5046701;28;20048;-71
2023/02/26 07:25:48;;;;;;;6.97;1.90;;;;;;;;;;5063490;28;20275;-75
2023/02/26 07:28:13;;;;;;;2.83;1.58;;;;;;;;;;5067577;28;20274;-73
2023/02/26 07:30:41;;;;;;;5.73;2.03;;;;;;;;;;5066338;28;20090;-74
2023/02/26 07:33:06;;;;;;;3.13;1.50;;;;;;;;;;5046707;28;20330;-72
2023/02/26 07:35:31;;;;;;;4.97;1.95;;;;;;;;;;5066345;28;20488;-74
2023/02/26 07:37:56;;;;;;;2.58;1.80;;;;;;;;;;5035439;28;20544;-70
2023/02/26 07:40:22;;;;;;;3.77;1.53;;;;;;;;;;5048799;28;20575;-71
2023/02/26 07:42:47;;;;;;;4.80;1.67;;;;;;;;;;5066117;28;20067;-72
2023/02/26 07:45:12;;;;;;;3.87;1.73;;;;;;;;;;5037581;28;20675;-73
2023/02/26 07:47:37;;;;;;;2.30;1.30;;;;;;;;;;5048052;28;20370;-69
2023/02/26 07:50:03;;;;;;;2.70;1.70;;;;;;;;;;5033309;28;20919;-61
2023/02/26 07:52:28;;;;;;;4.57;1.92;;;;;;;;;;5041379;28;20033;-70
2023/02/26 07:54:54;;;;;;;4.13;1.75;;;;;;;;;;5045163;28;20381;-65
2023/02/26 07:57:19;;;;;;;3.67;1.40;;;;;;;;;;5030950;28;20067;-65
2023/02/26 07:59:44;;;;;;;3.33;2.03;;;;;;;;;;5047945;28;20033;-72
2023/02/26 08:02:10;;;;;;;3.43;1.60;;;;;;;;;;5031377;28;20303;-66
2023/02/26 08:04:35;;;;;;;4.05;1.75;;;;;;;;;;5028281;28;20279;-69
2023/02/26 08:07:01;;;;;;;3.58;1.90;;;;;;;;;;5020763;28;20100;-65
2023/02/26 08:09:26;;;;;;;3.75;1.52;;;;;;;;;;5028580;28;20041;-66
2023/02/26 08:11:51;;;;;;;3.17;1.40;;;;;;;;;;5036956;28;20064;-71
2023/02/26 08:14:16;;;;;;;4.53;1.88;;;;;;;;;;5032722;28;20779;-62
2023/02/26 08:16:42;;;;;;;3.60;1.83;;;;;;;;;;5040590;28;20535;-69
2023/02/26 08:19:07;;;;;;;3.10;1.67;;;;;;;;;;5043122;28;20468;-69
2023/02/26 08:21:32;;;;;;;3.20;1.88;;;;;;;;;;5048961;28;20271;-71
2023/02/26 08:23:58;;;;;;;6.47;1.70;;;;;;;;;;5061974;28;20058;-67
2023/02/26 08:26:23;;;;;;;3.42;1.70;;;;;;;;;;5038131;28;20028;-68
2023/02/26 08:28:48;;;;;;;3.00;1.48;;;;;;;;;;5035913;28;20393;-66
2023/02/26 08:31:14;;;;;;;3.22;1.52;;;;;;;;;;5034727;28;20082;-69
2023/02/26 08:33:39;;;;;;;4.28;1.73;;;;;;;;;;5029244;28;20075;-69
2023/02/26 08:36:05;;;;;;;2.90;1.35;;;;;;;;;;5033799;28;20058;-62
2023/02/26 08:38:30;;;;;;;3.33;1.40;;;;;;;;;;5041164;28;20078;-69
2023/02/26 08:40:56;;;;;;;4.40;1.58;;;;;;;;;;5031986;28;20469;-64
2023/02/26 08:43:21;;;;;;;4.50;1.90;;;;;;;;;;5030947;28;20504;-68
2023/02/26 08:45:46;;;;;;;3.70;1.73;;;;;;;;;;5032698;28;20044;-69
2023/02/26 08:48:12;;;;;;;6.80;1.83;;;;;;;;;;5025909;28;20471;-65
2023/02/26 08:50:39;;;;;;;3.00;1.65;;;;;;;;;;5043315;28;20041;-69
2023/02/26 08:53:04;;;;;;;4.03;1.95;;;;;;;;;;5045649;28;20036;-65
2023/02/26 08:55:29;;;;;;;4.13;1.65;;;;;;;;;;5027480;28;20106;-70
2023/02/26 08:57:54;;;;;;;3.58;1.58;;;;;;;;;;5064512;28;20095;-60
2023/02/26 09:00:20;;;;;;;5.00;2.00;;;;;;;;;;5029650;28;20524;-70
2023/02/26 09:02:45;;;;;;;5.50;1.90;;;;;;;;;;5028618;28;20045;-66
2023/02/26 09:05:11;;;;;;;6.10;1.80;;;;;;;;;;5025832;28;20048;-62
2023/02/26 09:07:36;;;;;;;3.92;1.40;;;;;;;;;;5026621;28;20275;-67
2023/02/26 09:10:01;;;;;;;4.05;1.70;;;;;;;;;;5027328;28;20040;-65
2023/02/26 09:12:27;;;;;;;5.00;1.70;;;;;;;;;;5027568;28;20575;-65
2023/02/26 09:14:52;;;;;;;5.80;1.70;;;;;;;;;;5040587;28;20104;-66
2023/02/26 09:17:17;;;;;;;4.63;1.73;;;;;;;;;;5015703;28;20276;-68
2023/02/26 09:19:42;;;;;;;6.47;1.40;;;;;;;;;;5040036;28;20637;-64
2023/02/26 09:22:08;;;;;;;5.33;1.67;;;;;;;;;;5028941;28;20036;-71
2023/02/26 09:24:33;;;;;;;5.15;1.58;;;;;;;;;;5027151;28;21157;-70
2023/02/26 09:26:59;;;;;;;4.13;1.70;;;;;;;;;;5044544;28;20032;-71
2023/02/26 09:29:25;;;;;;;5.05;1.70;;;;;;;;;;5045396;28;20114;-63
2023/02/26 09:31:50;;;;;;;5.20;1.70;;;;;;;;;;5028837;28;20116;-68
2023/02/26 09:34:15;;;;;;;5.82;1.83;;;;;;;;;;5043426;28;20134;-70
2023/02/26 09:36:42;;;;;;;3.67;1.73;;;;;;;;;;5019220;28;20120;-68
2023/02/26 09:39:07;;;;;;;3.22;1.50;;;;;;;;;;5028246;28;20030;-70
2023/02/26 09:41:35;;;;;;;4.97;1.87;;;;;;;;;;5041766;28;20707;-68
2023/02/26 09:44:00;;;;;;;4.43;1.90;;;;;;;;;;5045162;28;20303;-69
2023/02/26 09:46:28;;;;;;;3.73;1.50;;;;;;;;;;5057999;28;20039;-67
2023/02/26 09:48:56;;;;;;;7.18;1.90;;;;;;;;;;5056459;28;20039;-70
2023/02/26 09:51:22;;;;;;;6.07;1.80;;;;;;;;;;5012749;28;20048;-67
2023/02/26 09:53:47;;;;;;;3.60;1.47;;;;;;;;;;5022359;28;20094;-60
2023/02/26 09:56:14;;;;;;;4.20;1.75;;;;;;;;;;5032645;28;20307;-66
2023/02/26 09:58:39;;;;;;;3.65;1.80;;;;;;;;;;5036158;28;20041;-72
2023/02/26 10:01:23;;;;;;;36.93;10.13;;;;;;;;;;5011568;28;20056;-66
2023/02/26 10:04:07;;;;;;;91.70;31.77;;;;;;;;;;5036361;28;20299;-67
2023/02/26 10:06:34;;;;;;;103.85;37.22;;;;;;;;;;5046268;28;20273;-66
2023/02/26 10:08:59;;;;;;;97.07;37.72;;;;;;;;;;5046353;28;20138;-66
2023/02/26 10:11:28;;;;;;;96.33;34.97;;;;;;;;;;5039733;28;20222;-63
2023/02/26 10:13:56;;;;;;;74.75;27.70;;;;;;;;;;5019565;28;20781;-62
2023/02/26 10:16:22;;;;;;;73.40;25.92;;;;;;;;;;5052598;28;20036;-66
2023/02/26 10:19:04;;;;;;;56.60;19.08;;;;;;;;;;5022456;28;20098;-66
2023/02/26 10:21:31;;;;;;;50.20;15.95;;;;;;;;;;5039114;28;20051;-67
2023/02/26 10:23:58;;;;;;;28.05;9.65;;;;;;;;;;5059533;28;20064;-68
2023/02/26 10:26:30;;;;;;;29.02;9.82;;;;;;;;;;5046660;28;20036;-66
2023/02/26 10:29:05;;;;;;;20.88;8.02;;;;;;;;;;5042620;28;20048;-67
2023/02/26 10:31:30;;;;;;;25.30;6.97;;;;;;;;;;5055222;28;20032;-67
2023/02/26 10:34:07;;;;;;;19.63;5.40;;;;;;;;;;5052485;28;20079;-65
2023/02/26 10:36:39;;;;;;;20.63;4.70;;;;;;;;;;5048670;28;20114;-68
2023/02/26 10:39:24;;;;;;;18.33;4.60;;;;;;;;;;5053929;28;20032;-67
2023/02/26 10:41:50;;;;;;;13.32;3.38;;;;;;;;;;5064108;28;20094;-63
2023/02/26 10:44:17;;;;;;;11.80;3.87;;;;;;;;;;5063378;28;20474;-68
2023/02/26 10:46:49;;;;;;;15.05;3.47;;;;;;;;;;5031267;28;20306;-69
2023/02/26 10:49:26;;;;;;;12.40;3.47;;;;;;;;;;5065096;28;20056;-72
2023/02/26 10:51:53;;;;;;;9.88;2.92;;;;;;;;;;5059397;28;20056;-65
2023/02/26 10:54:28;;;;;;;10.75;2.80;;;;;;;;;;5028597;28;20068;-71
2023/02/26 10:56:53;;;;;;;11.20;3.15;;;;;;;;;;5049531;28;20040;-59
2023/02/26 10:59:18;;;;;;;11.05;3.47;;;;;;;;;;5049434;28;20051;-71
2023/02/26 11:01:44;;;;;;;13.57;3.80;;;;;;;;;;5049192;28;20964;-64
2023/02/26 11:04:13;;;;;;;10.13;3.88;;;;;;;;;;5045891;28;20852;-64
2023/02/26 11:06:47;;;;;;;11.40;4.03;;;;;;;;;;5063000;28;20043;-65
2023/02/26 11:09:25;;;;;;;11.18;3.78;;;;;;;;;;5049664;28;20131;-68
2023/02/26 11:11:52;;;;;;;12.70;3.70;;;;;;;;;;5047334;28;20048;-63
2023/02/26 11:14:19;;;;;;;11.45;3.85;;;;;;;;;;5041718;28;20033;-70
2023/02/26 11:16:55;;;;;;;11.38;3.38;;;;;;;;;;5063238;28;20033;-70
2023/02/26 11:19:34;;;;;;;10.57;3.80;;;;;;;;;;5046461;28;20146;-68
2023/02/26 11:21:59;;;;;;;15.05;3.65;;;;;;;;;;5068222;28;20142;-69
2023/02/26 11:24:24;;;;;;;13.13;3.63;;;;;;;;;;5027517;28;20517;-62
2023/02/26 11:26:50;;;;;;;16.77;4.17;;;;;;;;;;5067659;28;20041;-66
2023/02/26 11:29:19;;;;;;;14.60;4.07;;;;;;;;;;5028843;28;20278;-67
2023/02/26 11:31:51;;;;;;;12.43;3.67;;;;;;;;;;5050948;28;20063;-64
2023/02/26 11:34:20;;;;;;;8.35;3.13;;;;;;;;;;5052695;28;20086;-69
2023/02/26 11:36:45;;;;;;;13.35;4.13;;;;;;;;;;5068432;28;20028;-75
2023/02/26 11:39:20;;;;;;;10.73;4.00;;;;;;;;;;5053875;28;20036;-72
2023/02/26 11:41:46;;;;;;;11.68;3.55;;;;;;;;;;5037508;28;20064;-68
2023/02/26 11:44:17;;;;;;;13.50;3.60;;;;;;;;;;5026077;28;20348;-68
2023/02/26 11:46:52;;;;;;;18.45;3.13;;;;;;;;;;5026810;28;20480;-73
2023/02/26 11:49:19;;;;;;;11.82;3.20;;;;;;;;;;5035233;28;20041;-68
2023/02/26 11:51:45;;;;;;;11.88;3.45;;;;;;;;;;5014325;28;20142;-73
2023/02/26 11:54:21;;;;;;;13.00;3.10;;;;;;;;;;5038373;28;20029;-73
2023/02/26 11:56:46;;;;;;;9.90;3.10;;;;;;;;;;5017432;28;20044;-71
2023/02/26 11:59:24;;;;;;;12.03;3.37;;;;;;;;;;5025550;28;20497;-68
2023/02/26 12:01:49;;;;;;;11.27;3.25;;;;;;;;;;5059443;28;20302;-67
2023/02/26 12:04:20;;;;;;;11.15;3.47;;;;;;;;;;5033101;28;20082;-63
2023/02/26 12:06:45;;;;;;;10.55;2.90;;;;;;;;;;5046532;28;20024;-66
2023/02/26 12:09:11;;;;;;;16.40;3.95;;;;;;;;;;5061495;28;20105;-66
2023/02/26 12:11:52;;;;;;;14.60;3.45;;;;;;;;;;5046481;28;20496;-68
2023/02/26 12:14:32;;;;;;;11.13;3.40;;;;;;;;;;5062538;28;20036;-67
2023/02/26 12:17:14;;;;;;;10.95;3.20;;;;;;;;;;5064038;28;20036;-69
2023/02/26 12:20:00;;;;;;;13.52;3.70;;;;;;;;;;5062904;28;20102;-72
2023/02/26 12:22:44;;;;;;;12.38;3.17;;;;;;;;;;4997894;28;20056;-68
2023/02/26 12:25:09;;;;;;;11.45;3.30;;;;;;;;;;5061530;28;20043;-76
2023/02/26 12:27:47;;;;;;;16.77;3.45;;;;;;;;;;5064729;28;20016;-72
2023/02/26 12:30:30;;;;;;;12.13;3.05;;;;;;;;;;5044916;28;20064;-63
2023/02/26 12:33:05;;;;;;;8.70;2.80;;;;;;;;;;5023719;28;20134;-60
2023/02/26 12:35:38;;;;;;;17.05;3.92;;;;;;;;;;5046942;28;20032;-65
2023/02/26 12:38:22;;;;;;;14.95;3.47;;;;;;;;;;5028401;28;20041;-68
2023/02/26 12:40:51;;;;;;;11.65;3.38;;;;;;;;;;5035245;28;20063;-68
2023/02/26 12:43:23;;;;;;;9.68;2.97;;;;;;;;;;5047379;28;20520;-73
2023/02/26 12:45:48;;;;;;;13.40;3.35;;;;;;;;;;5031184;28;20505;-67
2023/02/26 12:48:17;;;;;;;11.40;2.80;;;;;;;;;;5046689;28;20064;-70
2023/02/26 12:50:42;;;;;;;8.80;3.00;;;;;;;;;;5046159;28;20351;-64
2023/02/26 12:53:36;;;;;;;10.05;3.40;;;;;;;;;;5063564;28;20036;-69
2023/02/26 12:56:16;;;;;;;16.05;3.90;;;;;;;;;;4986372;28;20041;-67
2023/02/26 12:58:42;;;;;;;;;;;;;;;;;;5026301;28;20068;-69
2023/02/26 13:01:12;;;;;;;13.65;3.58;;;;;;;;;;5045804;28;19970;-67
2023/02/26 13:03:55;;;;;;;13.52;4.05;;;;;;;;;;5045048;28;20052;-63
2023/02/26 13:06:42;;;;;;;11.68;3.60;;;;;;;;;;5046426;28;20151;-71
2023/02/26 13:09:13;;;;;;;8.30;3.00;;;;;;;;;;5041182;28;20052;-69
2023/02/26 13:11:46;;;;;;;12.90;3.80;;;;;;;;;;5027513;28;20532;-70
2023/02/26 13:14:12;;;;;;;10.27;3.35;;;;;;;;;;5035822;28;20044;-64
2023/02/26 13:16:42;;;;;;;12.05;3.08;;;;;;;;;;5039270;28;20432;-68
2023/02/26 13:19:07;;;;;;;12.77;3.73;;;;;;;;;;5024774;28;20041;-63
2023/02/26 13:21:37;;;;;;;12.63;4.00;;;;;;;;;;5063329;28;20655;-64
2023/02/26 13:24:04;;;;;;;16.42;4.35;;;;;;;;;;5045137;28;20056;-62
2023/02/26 13:26:30;;;;;;;12.32;3.85;;;;;;;;;;5011148;28;20498;-62
2023/02/26 13:28:59;;;;;;;13.32;3.92;;;;;;;;;;5027932;28;20036;-62
2023/02/26 13:31:30;;;;;;;13.60;3.85;;;;;;;;;;5027749;28;20390;-59
2023/02/26 13:33:56;;;;;;;14.40;3.90;;;;;;;;;;5027305;28;20045;-67
2023/02/26 13:36:21;;;;;;;11.55;3.42;;;;;;;;;;5045039;28;20071;-66
2023/02/26 13:38:46;;;;;;;13.73;4.07;;;;;;;;;;5023411;28;20094;-69
2023/02/26 13:41:18;;;;;;;13.48;4.03;;;;;;;;;;5041817;28;20311;-67
2023/02/26 13:44:06;;;;;;;13.40;3.75;;;;;;;;;;5057895;28;20521;-68
2023/02/26 13:46:31;;;;;;;13.43;3.67;;;;;;;;;;5034081;28;20424;-67
2023/02/26 13:49:01;;;;;;;10.67;3.57;;;;;;;;;;5059531;28;20076;-67
2023/02/26 13:51:32;;;;;;;12.55;3.25;;;;;;;;;;5049650;28;20298;-64
2023/02/26 13:54:07;;;;;;;11.18;3.50;;;;;;;;;;5030274;28;20155;-70
2023/02/26 13:56:33;;;;;;;10.77;3.20;;;;;;;;;;5030584;28;20041;-69
2023/02/26 13:59:01;;;;;;;9.77;3.10;;;;;;;;;;5045491;28;20547;-68
2023/02/26 14:01:28;;;;;;;15.30;4.45;;;;;;;;;;5045188;28;20044;-66
2023/02/26 14:04:05;;;;;;;16.63;4.10;;;;;;;;;;5038884;28;20060;-69
2023/02/26 14:06:38;;;;;;;12.48;3.45;;;;;;;;;;5036021;28;20048;-67
2023/02/26 14:09:05;;;;;;;11.75;3.55;;;;;;;;;;5057576;28;20028;-65
2023/02/26 14:11:30;;;;;;;13.40;3.90;;;;;;;;;;5062625;28;20015;-66
2023/02/26 14:14:21;;;;;;;15.93;3.70;;;;;;;;;;5063160;28;20020;-68
2023/02/26 14:16:49;;;;;;;17.65;4.85;;;;;;;;;;5039936;28;20290;-60
2023/02/26 14:19:23;;;;;;;15.38;3.95;;;;;;;;;;5036652;28;20574;-66
2023/02/26 14:21:57;;;;;;;12.90;3.42;;;;;;;;;;5027127;28;20459;-68
2023/02/26 14:24:36;;;;;;;14.82;3.88;;;;;;;;;;5058750;28;20072;-73
2023/02/26 14:27:10;;;;;;;16.65;4.72;;;;;;;;;;5024884;28;20099;-64
2023/02/26 14:29:42;;;;;;;14.98;4.13;;;;;;;;;;5041247;28;20033;-65
2023/02/26 14:32:15;;;;;;;12.15;3.63;;;;;;;;;;5039876;28;20531;-69
2023/02/26 14:34:50;;;;;;;12.05;3.70;;;;;;;;;;5031964;28;20078;-70
2023/02/26 14:37:17;;;;;;;15.88;4.10;;;;;;;;;;5029987;28;20040;-68
2023/02/26 14:39:52;;;;;;;16.52;3.97;;;;;;;;;;5020578;28;20049;-64
2023/02/26 14:42:19;;;;;;;18.58;4.57;;;;;;;;;;5024999;28;20045;-71
2023/02/26 14:44:46;;;;;;;15.23;3.88;;;;;;;;;;5028900;28;20087;-71